Time,TemperatureF,DewpointF,PressureIn,WindDirection,WindDirectionDegrees,WindSpeedMPH,WindSpeedGustMPH,Humidity,HourlyPrecipIn,Conditions,Clouds,dailyrainin,SoftwareType,DateUTC
2014-02-12 00:00:00,-4.0,-8.7,30.41,SSE,158,2.0,9.0,83,0.00,,CLR,0.00,VWS V14.01,2014-02-12 06:00:00,
2014-02-12 00:12:00,-5.3,-8.0,30.41,SSW,202,3.0,7.0,86,0.00,,,0.00,weatherlink.com 1.10,2014-02-12 06:12:00,
2014-02-12 00:27:00,-5.4,-8.0,30.40,SSE,149,0.0,8.0,87,0.00,,,0.00,weatherlink.com 1.10,2014-02-12 06:27:00,
2014-02-12 00:30:00,-4.0,-8.3,30.40,SSE,158,2.0,8.0,85,0.00,,CLR,0.00,VWS V14.01,2014-02-12 06:30:00,
2014-02-12 00:42:00,-5.0,-8.0,30.40,SSE,155,1.0,6.0,87,0.00,,,0.00,weatherlink.com 1.10,2014-02-12 06:42:00,
2014-02-12 00:57:00,-4.4,-7.0,30.39,SSE,156,3.0,5.0,87,0.00,,,0.00,weatherlink.com 1.10,2014-02-12 06:57:00,
2014-02-12 01:00:00,-3.0,-7.6,30.39,SSE,158,2.0,6.0,85,0.00,,CLR,0.00,VWS V14.01,2014-02-12 07:00:00,
2014-02-12 01:30:00,-4.0,-8.3,30.39,SSE,158,1.0,7.0,83,0.00,,CLR,0.00,VWS V14.01,2014-02-12 07:30:00,
2014-02-12 01:42:00,-4.7,-8.0,30.38,SE,126,3.0,6.0,87,0.00,,,0.00,weatherlink.com 1.10,2014-02-12 07:42:00,
2014-02-12 01:58:00,-4.0,-7.0,30.37,SE,141,2.0,8.0,87,0.00,,,0.00,weatherlink.com 1.10,2014-02-12 07:58:00,
2014-02-12 02:00:00,-3.0,-7.2,30.38,SE,135,3.0,8.0,85,0.00,,CLR,0.00,VWS V14.01,2014-02-12 08:00:00,
2014-02-12 02:13:00,-4.2,-7.0,30.36,SE,140,10.0,12.0,86,0.00,,,0.00,weatherlink.com 1.10,2014-02-12 08:13:00,
2014-02-12 02:28:00,-4.1,-7.0,30.36,SSE,148,9.0,10.0,86,0.00,,,0.00,weatherlink.com 1.10,2014-02-12 08:28:00,
2014-02-12 02:30:00,-3.0,-7.3,30.35,SE,135,5.0,12.0,84,0.00,,CLR,0.00,VWS V14.01,2014-02-12 08:30:00,
2014-02-12 02:43:00,-4.1,-7.0,30.35,SE,136,1.0,8.0,86,0.00,,,0.00,weatherlink.com 1.10,2014-02-12 08:43:00,
2014-02-12 02:58:00,-4.4,-8.0,30.35,SE,128,4.0,5.0,86,0.00,,,0.00,weatherlink.com 1.10,2014-02-12 08:58:00,
2014-02-12 03:00:00,-3.0,-7.4,30.35,SE,135,3.0,8.0,84,0.00,,CLR,0.00,VWS V14.01,2014-02-12 09:00:00,
2014-02-12 03:13:00,-4.5,-8.0,30.35,ENE,71,1.0,1.0,86,0.00,,,0.00,weatherlink.com 1.10,2014-02-12 09:13:00,
2014-02-12 03:28:00,-4.4,-7.0,30.34,ESE,112,0.0,2.0,87,0.00,,,0.00,weatherlink.com 1.10,2014-02-12 09:28:00,
2014-02-12 03:30:00,-3.0,-7.0,30.34,ESE,112,0.0,3.0,85,0.00,,CLR,0.00,VWS V14.01,2014-02-12 09:30:00,
2014-02-12 03:43:00,-2.0,-4.0,30.33,ESE,120,4.0,7.0,89,0.00,,,0.00,weatherlink.com 1.10,2014-02-12 09:43:00,
2014-02-12 03:58:00,-1.0,-4.0,30.34,ESE,108,1.0,4.0,88,0.00,,,0.00,weatherlink.com 1.10,2014-02-12 09:58:00,
2014-02-12 04:00:00,1.0,-3.5,30.33,SE,135,2.0,8.0,87,0.00,,CLR,0.00,VWS V14.01,2014-02-12 10:00:00,
2014-02-12 04:13:00,0.1,-3.0,30.33,SSE,154,5.0,6.0,88,0.00,,,0.00,weatherlink.com 1.10,2014-02-12 10:13:00,
2014-02-12 04:28:00,0.5,-3.0,30.33,SE,146,4.0,9.0,87,0.00,,,0.00,weatherlink.com 1.10,2014-02-12 10:28:00,
2014-02-12 04:30:00,2.0,-2.5,30.33,SSE,158,3.0,10.0,86,0.00,,CLR,0.00,VWS V14.01,2014-02-12 10:30:00,
2014-02-12 04:43:00,0.7,-2.0,30.33,South,178,0.0,8.0,88,0.00,,,0.00,weatherlink.com 1.10,2014-02-12 10:43:00,
2014-02-12 04:59:00,1.4,-1.0,30.33,SSE,154,2.0,8.0,88,0.00,,,0.00,weatherlink.com 1.10,2014-02-12 10:59:00,
2014-02-12 05:00:00,3.0,-1.2,30.33,SSE,158,2.0,8.0,86,0.00,,CLR,0.00,VWS V14.01,2014-02-12 11:00:00,
2014-02-12 05:14:00,1.6,-1.0,30.33,South,178,1.0,8.0,87,0.00,,,0.00,weatherlink.com 1.10,2014-02-12 11:14:00,
2014-02-12 05:29:00,1.8,-1.0,30.32,SE,141,0.0,6.0,87,0.00,,,0.00,weatherlink.com 1.10,2014-02-12 11:29:00,
2014-02-12 05:30:00,4.0,-1.2,30.32,SSE,158,2.0,8.0,86,0.00,,CLR,0.00,VWS V14.01,2014-02-12 11:30:00,
2014-02-12 05:44:00,2.0,-1.0,30.31,South,184,1.0,6.0,87,0.00,,,0.00,weatherlink.com 1.10,2014-02-12 11:44:00,
2014-02-12 05:59:00,2.1,-1.0,30.31,SSE,155,3.0,8.0,87,0.00,,,0.00,weatherlink.com 1.10,2014-02-12 11:59:00,
2014-02-12 06:00:00,4.0,-0.8,30.31,SSE,158,2.0,8.0,86,0.00,,CLR,0.00,VWS V14.01,2014-02-12 12:00:00,
2014-02-12 06:14:00,2.4,-1.0,30.30,SSE,152,3.0,9.0,87,0.00,,,0.00,weatherlink.com 1.10,2014-02-12 12:14:00,
2014-02-12 06:29:00,2.9,0.0,30.30,SSW,198,1.0,7.0,87,0.00,,,0.00,weatherlink.com 1.10,2014-02-12 12:29:00,
2014-02-12 06:30:00,5.0,0.0,30.30,SSE,158,2.0,9.0,86,0.00,,CLR,0.00,VWS V14.01,2014-02-12 12:30:00,
2014-02-12 06:44:00,3.3,0.0,30.30,SSW,200,2.0,4.0,87,0.00,,,0.00,weatherlink.com 1.10,2014-02-12 12:44:00,
2014-02-12 06:59:00,3.8,1.0,30.29,SSE,151,3.0,6.0,87,0.00,,,0.00,weatherlink.com 1.10,2014-02-12 12:59:00,
2014-02-12 07:00:00,6.0,0.9,30.29,SSE,158,2.0,9.0,86,0.00,,CLR,0.00,VWS V14.01,2014-02-12 13:00:00,
2014-02-12 07:14:00,4.1,1.0,30.29,ESE,109,1.0,6.0,86,0.00,,,0.00,weatherlink.com 1.10,2014-02-12 13:14:00,
2014-02-12 07:29:00,4.7,1.0,30.28,South,183,3.0,8.0,86,0.00,,,0.00,weatherlink.com 1.10,2014-02-12 13:29:00,
2014-02-12 07:30:00,7.0,1.5,30.28,SSE,158,2.0,8.0,85,0.00,,CLR,0.00,VWS V14.01,2014-02-12 13:30:00,
2014-02-12 07:44:00,5.2,2.0,30.28,SSW,203,2.0,5.0,85,0.00,,,0.00,weatherlink.com 1.10,2014-02-12 13:44:00,
2014-02-12 07:59:00,5.6,2.0,30.27,SE,140,0.0,4.0,85,0.00,,,0.00,weatherlink.com 1.10,2014-02-12 13:59:00,
2014-02-12 08:00:00,8.0,2.2,30.27,SSE,158,2.0,6.0,84,0.00,,CLR,0.00,VWS V14.01,2014-02-12 14:00:00,
2014-02-12 08:15:00,6.0,2.0,30.28,SW,214,1.0,5.0,84,0.00,,,0.00,weatherlink.com 1.10,2014-02-12 14:15:00,
2014-02-12 08:30:00,6.7,3.0,30.27,SSE,152,1.0,8.0,83,0.00,,,0.00,weatherlink.com 1.10,2014-02-12 14:30:00,
2014-02-12 08:45:00,7.4,3.0,30.27,SSW,195,4.0,6.0,82,0.00,,,0.00,weatherlink.com 1.10,2014-02-12 14:45:00,
2014-02-12 09:00:00,7.9,4.0,30.26,SSE,157,5.0,6.0,82,0.00,,,0.00,weatherlink.com 1.10,2014-02-12 15:00:00,
2014-02-12 09:15:00,8.4,4.0,30.26,ESE,123,5.0,6.0,81,0.00,,,0.00,weatherlink.com 1.10,2014-02-12 15:15:00,
2014-02-12 09:30:00,12.0,4.7,30.26,SSE,158,3.0,9.0,80,0.00,,CLR,0.00,VWS V14.01,2014-02-12 15:30:00,
2014-02-12 09:31:00,9.3,5.0,30.26,South,175,3.0,6.0,81,0.00,,,0.00,weatherlink.com 1.10,2014-02-12 15:31:00,
2014-02-12 09:45:00,9.7,4.0,30.26,South,188,3.0,7.0,79,0.00,,,0.00,weatherlink.com 1.10,2014-02-12 15:45:00,
2014-02-12 10:00:00,10.5,5.0,30.26,SSE,150,4.0,7.0,79,0.00,,,0.00,weatherlink.com 1.10,2014-02-12 16:00:00,
2014-02-12 10:15:00,10.4,5.0,30.26,SE,146,3.0,8.0,79,0.00,,,0.00,weatherlink.com 1.10,2014-02-12 16:15:00,
2014-02-12 10:30:00,10.9,6.0,30.25,SSE,148,0.0,8.0,79,0.00,,,0.00,weatherlink.com 1.10,2014-02-12 16:30:00,
2014-02-12 10:45:00,12.3,6.0,30.25,SSW,198,1.0,7.0,76,0.00,,,0.00,weatherlink.com 1.10,2014-02-12 16:45:00,
2014-02-12 11:00:00,12.6,6.0,30.25,South,172,4.0,7.0,76,0.00,,,0.00,weatherlink.com 1.10,2014-02-12 17:00:00,
2014-02-12 11:15:00,12.9,6.0,30.24,SSW,195,7.0,10.0,75,0.00,,,0.00,weatherlink.com 1.10,2014-02-12 17:15:00,
2014-02-12 11:30:00,12.8,7.0,30.23,SSE,161,9.0,10.0,76,0.00,,,0.00,weatherlink.com 1.10,2014-02-12 17:30:00,
2014-02-12 11:46:00,13.7,7.0,30.22,SSW,205,2.0,9.0,76,0.00,,,0.00,weatherlink.com 1.10,2014-02-12 17:46:00,
2014-02-12 12:00:00,17.0,8.2,30.21,South,180,5.0,11.0,75,0.00,,CLR,0.00,VWS V14.01,2014-02-12 18:00:00,
2014-02-12 12:01:00,14.6,8.0,30.21,SSE,155,3.0,9.0,75,0.00,,,0.00,weatherlink.com 1.10,2014-02-12 18:01:00,
2014-02-12 12:16:00,15.1,8.0,30.20,South,172,7.0,12.0,73,0.00,,,0.00,weatherlink.com 1.10,2014-02-12 18:16:00,
2014-02-12 12:30:00,18.0,8.7,30.19,SSW,202,5.0,11.0,75,0.00,,CLR,0.00,VWS V14.01,2014-02-12 18:30:00,
2014-02-12 12:31:00,14.8,9.0,30.19,SE,146,2.0,8.0,76,0.00,,,0.00,weatherlink.com 1.10,2014-02-12 18:31:00,
2014-02-12 12:46:00,15.3,9.0,30.18,SSW,211,5.0,9.0,75,0.00,,,0.00,weatherlink.com 1.10,2014-02-12 18:46:00,
2014-02-12 13:00:00,19.0,9.1,30.17,SSW,202,5.0,9.0,74,0.00,,CLR,0.00,VWS V14.01,2014-02-12 19:00:00,
2014-02-12 13:01:00,15.6,9.0,30.17,SSW,202,5.0,9.0,75,0.00,,,0.00,weatherlink.com 1.10,2014-02-12 19:01:00,
2014-02-12 13:16:00,16.3,9.0,30.16,SSW,198,5.0,8.0,73,0.00,,,0.00,weatherlink.com 1.10,2014-02-12 19:16:00,
2014-02-12 13:30:00,19.0,8.8,30.15,SSW,202,5.0,9.0,73,0.00,,CLR,0.00,VWS V14.01,2014-02-12 19:30:00,
2014-02-12 13:31:00,15.9,9.0,30.15,SSW,199,4.0,9.0,73,0.00,,,0.00,weatherlink.com 1.10,2014-02-12 19:31:00,
2014-02-12 13:46:00,16.6,9.0,30.15,SSW,199,3.0,8.0,73,0.00,,,0.00,weatherlink.com 1.10,2014-02-12 19:46:00,
2014-02-12 14:00:00,20.0,10.1,30.14,SSW,202,4.0,7.0,74,0.00,,CLR,0.00,VWS V14.01,2014-02-12 20:00:00,
2014-02-12 14:01:00,17.3,10.0,30.14,SW,234,3.0,7.0,73,0.00,,,0.00,weatherlink.com 1.10,2014-02-12 20:01:00,
2014-02-12 14:16:00,17.4,10.0,30.14,SSW,210,3.0,7.0,71,0.00,,,0.00,weatherlink.com 1.10,2014-02-12 20:16:00,
2014-02-12 14:30:00,20.0,10.4,30.14,SW,225,3.0,9.0,72,0.00,,CLR,0.00,VWS V14.01,2014-02-12 20:30:00,
2014-02-12 14:31:00,17.9,10.0,30.14,SW,220,2.0,6.0,72,0.00,,,0.00,weatherlink.com 1.10,2014-02-12 20:31:00,
2014-02-12 14:46:00,18.0,10.0,30.13,SSE,166,2.0,6.0,72,0.00,,,0.00,weatherlink.com 1.10,2014-02-12 20:46:00,
2014-02-12 15:00:00,20.0,10.7,30.12,SSW,202,3.0,6.0,74,0.00,,CLR,0.00,VWS V14.01,2014-02-12 21:00:00,
2014-02-12 15:02:00,17.9,11.0,30.12,South,179,2.0,5.0,73,0.00,,,0.00,weatherlink.com 1.10,2014-02-12 21:02:00,
2014-02-12 15:17:00,18.1,11.0,30.12,South,173,3.0,6.0,74,0.00,,,0.00,weatherlink.com 1.10,2014-02-12 21:17:00,
2014-02-12 15:30:00,20.0,10.8,30.11,SSE,158,2.0,6.0,73,0.00,,CLR,0.00,VWS V14.01,2014-02-12 21:30:00,
2014-02-12 15:32:00,17.7,11.0,30.11,SSE,159,1.0,5.0,75,0.00,,,0.00,weatherlink.com 1.10,2014-02-12 21:32:00,
2014-02-12 15:47:00,17.5,11.0,30.11,SE,141,2.0,4.0,75,0.00,,,0.00,weatherlink.com 1.10,2014-02-12 21:47:00,
2014-02-12 16:00:00,20.0,11.1,30.11,SSE,158,2.0,4.0,76,0.00,,CLR,0.00,VWS V14.01,2014-02-12 22:00:00,
2014-02-12 16:02:00,17.0,11.0,30.11,SSE,159,1.0,4.0,77,0.00,,,0.00,weatherlink.com 1.10,2014-02-12 22:02:00,
2014-02-12 16:17:00,16.6,11.0,30.12,SE,125,1.0,2.0,77,0.00,,,0.00,weatherlink.com 1.10,2014-02-12 22:17:00,
2014-02-12 16:30:00,19.0,10.7,30.12,SE,135,1.0,5.0,76,0.00,,CLR,0.00,VWS V14.01,2014-02-12 22:30:00,
2014-02-12 16:32:00,16.2,11.0,30.12,SE,132,2.0,4.0,78,0.00,,,0.00,weatherlink.com 1.10,2014-02-12 22:32:00,
2014-02-12 16:47:00,15.9,11.0,30.11,SSE,154,1.0,6.0,79,0.00,,,0.00,weatherlink.com 1.10,2014-02-12 22:47:00,
2014-02-12 17:00:00,18.0,10.6,30.12,SSE,158,2.0,5.0,77,0.00,,CLR,0.00,VWS V14.01,2014-02-12 23:00:00,
2014-02-12 17:02:00,15.9,11.0,30.11,SSE,157,3.0,5.0,79,0.00,,,0.00,weatherlink.com 1.10,2014-02-12 23:02:00,
2014-02-12 17:17:00,16.1,10.0,30.11,SSE,161,2.0,5.0,78,0.00,,,0.00,weatherlink.com 1.10,2014-02-12 23:17:00,
2014-02-12 17:30:00,18.0,10.4,30.12,SSE,158,2.0,6.0,77,0.00,,CLR,0.00,VWS V14.01,2014-02-12 23:30:00,
2014-02-12 17:32:00,16.4,10.0,30.12,South,188,1.0,6.0,77,0.00,,,0.00,weatherlink.com 1.10,2014-02-12 23:32:00,
2014-02-12 17:47:00,16.5,11.0,30.12,SE,145,0.0,7.0,79,0.00,,,0.00,weatherlink.com 1.10,2014-02-12 23:47:00,
2014-02-12 18:00:00,18.0,11.2,30.13,SE,135,2.0,7.0,79,0.00,,CLR,0.00,VWS V14.01,2014-02-13 00:00:00,
2014-02-12 18:02:00,16.6,11.0,30.12,ESE,121,1.0,4.0,79,0.00,,,0.00,weatherlink.com 1.10,2014-02-13 00:02:00,
2014-02-12 18:17:00,16.7,11.0,30.14,WSW,243,1.0,2.0,79,0.00,,,0.00,weatherlink.com 1.10,2014-02-13 00:17:00,
2014-02-12 18:30:00,18.0,11.1,30.13,SSW,202,1.0,3.0,78,0.00,,CLR,0.00,VWS V14.01,2014-02-13 00:30:00,
2014-02-12 18:33:00,16.8,11.0,30.13,ESE,103,0.0,3.0,78,0.00,,,0.00,weatherlink.com 1.10,2014-02-13 00:33:00,
2014-02-12 18:48:00,16.8,11.0,30.12,SE,143,1.0,4.0,78,0.00,,,0.00,weatherlink.com 1.10,2014-02-13 00:48:00,
2014-02-12 19:00:00,19.0,11.6,30.11,SSW,202,1.0,4.0,79,0.00,,CLR,0.00,VWS V14.01,2014-02-13 01:00:00,
2014-02-12 19:03:00,17.0,12.0,30.11,SE,132,1.0,3.0,79,0.00,,,0.00,weatherlink.com 1.10,2014-02-13 01:03:00,
2014-02-12 19:18:00,17.1,11.0,30.10,SE,132,3.0,5.0,77,0.00,,,0.00,weatherlink.com 1.10,2014-02-13 01:18:00,
2014-02-12 19:30:00,19.0,11.9,30.09,SE,135,2.0,5.0,79,0.00,,CLR,0.00,VWS V14.01,2014-02-13 01:30:00,
2014-02-12 19:33:00,17.3,12.0,30.09,SSE,161,1.0,4.0,79,0.00,,,0.00,weatherlink.com 1.10,2014-02-13 01:33:00,
2014-02-12 19:48:00,17.4,12.0,30.08,SE,140,4.0,6.0,80,0.00,,,0.00,weatherlink.com 1.10,2014-02-13 01:48:00,
2014-02-12 20:00:00,19.0,12.4,30.08,SE,135,3.0,7.0,80,0.00,,CLR,0.00,VWS V14.01,2014-02-13 02:00:00,
2014-02-12 20:03:00,17.5,12.0,30.07,SSE,150,2.0,7.0,80,0.00,,,0.00,weatherlink.com 1.10,2014-02-13 02:03:00,
2014-02-12 20:18:00,17.6,12.0,30.07,SE,136,3.0,6.0,80,0.00,,,0.00,weatherlink.com 1.10,2014-02-13 02:18:00,
2014-02-12 20:30:00,19.0,12.6,30.06,SE,135,3.0,9.0,80,0.00,,CLR,0.00,VWS V14.01,2014-02-13 02:30:00,
2014-02-12 20:33:00,17.7,13.0,30.06,SSE,157,4.0,9.0,80,0.00,,,0.00,weatherlink.com 1.10,2014-02-13 02:33:00,
2014-02-12 20:48:00,17.8,13.0,30.05,SE,136,6.0,10.0,80,0.00,,,0.00,weatherlink.com 1.10,2014-02-13 02:48:00,
2014-02-12 21:00:00,19.0,13.0,30.05,SE,135,4.0,10.0,80,0.00,,CLR,0.00,VWS V14.01,2014-02-13 03:00:00,
2014-02-12 21:03:00,17.8,13.0,30.04,SE,130,3.0,10.0,81,0.00,,,0.00,weatherlink.com 1.10,2014-02-13 03:03:00,
2014-02-12 21:18:00,18.0,13.0,30.05,South,176,3.0,7.0,81,0.00,,,0.00,weatherlink.com 1.10,2014-02-13 03:18:00,
2014-02-12 21:30:00,20.0,13.4,30.04,SSE,158,3.0,10.0,80,0.00,,CLR,0.00,VWS V14.01,2014-02-13 03:30:00,
2014-02-12 21:33:00,18.3,13.0,30.04,ESE,123,2.0,11.0,81,0.00,,,0.00,weatherlink.com 1.10,2014-02-13 03:33:00,
2014-02-12 21:48:00,18.2,13.0,30.04,South,173,3.0,8.0,81,0.00,,,0.00,weatherlink.com 1.10,2014-02-13 03:48:00,
2014-02-12 22:00:00,20.0,13.4,30.05,SSE,158,3.0,8.0,81,0.00,,CLR,0.00,VWS V14.01,2014-02-13 04:00:00,
2014-02-12 22:04:00,18.2,13.0,30.05,SSE,159,7.0,7.0,81,0.00,,,0.00,weatherlink.com 1.10,2014-02-13 04:04:00,
2014-02-12 22:19:00,18.0,13.0,30.04,South,175,4.0,8.0,81,0.00,,,0.00,weatherlink.com 1.10,2014-02-13 04:19:00,
2014-02-12 22:30:00,19.0,13.1,30.03,SE,135,3.0,8.0,81,0.00,,CLR,0.00,VWS V14.01,2014-02-13 04:30:00,
2014-02-12 22:34:00,17.9,13.0,30.04,SSE,157,4.0,8.0,81,0.00,,,0.00,weatherlink.com 1.10,2014-02-13 04:34:00,
2014-02-12 22:49:00,18.0,13.0,30.03,South,173,2.0,8.0,81,0.00,,,0.00,weatherlink.com 1.10,2014-02-13 04:49:00,
2014-02-12 23:00:00,20.0,13.3,30.04,SE,135,3.0,9.0,81,0.00,,CLR,0.00,VWS V14.01,2014-02-13 05:00:00,
2014-02-12 23:19:00,18.1,14.0,30.03,SSE,164,1.0,5.0,82,0.00,,,0.00,weatherlink.com 1.10,2014-02-13 05:19:00,
2014-02-12 23:30:00,20.0,13.8,30.03,SSW,202,2.0,5.0,82,0.00,,CLR,0.00,VWS V14.01,2014-02-13 05:30:00,
2014-02-12 23:49:00,18.1,14.0,30.03,SSW,192,1.0,3.0,83,0.00,,,0.00,weatherlink.com 1.10,2014-02-13 05:49:00,